sensor_id;sensor_type;location;lat;lon;timestamp;temperature;humidity
24902;DHT22;31328;51.402;0.016;2023-07-31T00:00:35;17.30;99.90
24902;DHT22;31328;51.402;0.016;2023-07-31T00:03:01;17.30;99.90
24902;DHT22;31328;51.402;0.016;2023-07-31T00:05:27;17.30;99.90
24902;DHT22;31328;51.402;0.016;2023-07-31T00:07:54;17.30;99.90
24902;DHT22;31328;51.402;0.016;2023-07-31T00:10:20;17.20;99.90
24902;DHT22;31328;51.402;0.016;2023-07-31T00:12:47;17.20;99.90
24902;DHT22;31328;51.402;0.016;2023-07-31T00:15:13;17.20;99.90
24902;DHT22;31328;51.402;0.016;2023-07-31T00:17:39;17.20;99.90
24902;DHT22;31328;51.402;0.016;2023-07-31T00:20:06;17.10;99.90
24902;DHT22;31328;51.402;0.016;2023-07-31T00:22:32;17.10;99.90
24902;DHT22;31328;51.402;0.016;2023-07-31T00:24:58;17.10;99.90
24902;DHT22;31328;51.402;0.016;2023-07-31T00:27:25;17.10;99.90
24902;DHT22;31328;51.402;0.016;2023-07-31T00:29:51;17.00;99.90
24902;DHT22;31328;51.402;0.016;2023-07-31T00:32:17;17.00;99.90
24902;DHT22;31328;51.402;0.016;2023-07-31T00:34:43;17.00;99.90
24902;DHT22;31328;51.402;0.016;2023-07-31T00:37:10;17.00;99.90
24902;DHT22;31328;51.402;0.016;2023-07-31T00:39:36;17.00;99.90
24902;DHT22;31328;51.402;0.016;2023-07-31T00:42:02;17.10;99.90
24902;DHT22;31328;51.402;0.016;2023-07-31T00:44:28;17.00;99.90
24902;DHT22;31328;51.402;0.016;2023-07-31T00:46:54;17.10;99.90
24902;DHT22;31328;51.402;0.016;2023-07-31T00:49:22;17.10;99.90
24902;DHT22;31328;51.402;0.016;2023-07-31T00:51:49;17.10;99.90
24902;DHT22;31328;51.402;0.016;2023-07-31T00:54:15;17.10;99.90
24902;DHT22;31328;51.402;0.016;2023-07-31T00:56:41;17.10;99.90
24902;DHT22;31328;51.402;0.016;2023-07-31T00:59:07;17.10;99.90
24902;DHT22;31328;51.402;0.016;2023-07-31T01:01:33;17.10;99.90
24902;DHT22;31328;51.402;0.016;2023-07-31T01:03:59;17.10;99.90
24902;DHT22;31328;51.402;0.016;2023-07-31T01:11:53;17.20;99.90
24902;DHT22;31328;51.402;0.016;2023-07-31T01:14:21;17.20;99.90
24902;DHT22;31328;51.402;0.016;2023-07-31T01:16:48;17.20;99.90
24902;DHT22;31328;51.402;0.016;2023-07-31T01:19:15;17.20;99.90
24902;DHT22;31328;51.402;0.016;2023-07-31T01:24:28;17.30;99.90
24902;DHT22;31328;51.402;0.016;2023-07-31T01:29:37;17.30;99.90
24902;DHT22;31328;51.402;0.016;2023-07-31T01:32:05;17.30;99.90
24902;DHT22;31328;51.402;0.016;2023-07-31T01:34:32;17.30;99.90
24902;DHT22;31328;51.402;0.016;2023-07-31T01:36:58;17.30;99.90
24902;DHT22;31328;51.402;0.016;2023-07-31T01:39:24;17.30;99.90
24902;DHT22;31328;51.402;0.016;2023-07-31T01:41:50;17.30;99.90
24902;DHT22;31328;51.402;0.016;2023-07-31T01:44:17;17.30;99.90
24902;DHT22;31328;51.402;0.016;2023-07-31T01:46:43;17.30;99.90
24902;DHT22;31328;51.402;0.016;2023-07-31T01:49:09;17.40;99.90
24902;DHT22;31328;51.402;0.016;2023-07-31T01:51:35;17.40;99.90
24902;DHT22;31328;51.402;0.016;2023-07-31T01:54:02;17.40;99.90
24902;DHT22;31328;51.402;0.016;2023-07-31T01:56:28;17.40;99.90
24902;DHT22;31328;51.402;0.016;2023-07-31T01:58:54;17.40;99.90
24902;DHT22;31328;51.402;0.016;2023-07-31T02:01:20;17.40;99.90
24902;DHT22;31328;51.402;0.016;2023-07-31T02:03:46;17.40;99.90
24902;DHT22;31328;51.402;0.016;2023-07-31T02:06:14;17.40;99.90
24902;DHT22;31328;51.402;0.016;2023-07-31T02:08:40;17.40;99.90
24902;DHT22;31328;51.402;0.016;2023-07-31T02:11:06;17.40;99.90
24902;DHT22;31328;51.402;0.016;2023-07-31T02:13:32;17.40;99.90
24902;DHT22;31328;51.402;0.016;2023-07-31T02:15:58;17.40;99.90
24902;DHT22;31328;51.402;0.016;2023-07-31T02:18:25;17.50;99.90
24902;DHT22;31328;51.402;0.016;2023-07-31T02:20:51;17.50;99.90
24902;DHT22;31328;51.402;0.016;2023-07-31T02:23:18;17.50;99.90
24902;DHT22;31328;51.402;0.016;2023-07-31T02:25:44;17.50;99.90
24902;DHT22;31328;51.402;0.016;2023-07-31T02:28:11;17.50;99.90
24902;DHT22;31328;51.402;0.016;2023-07-31T02:30:37;17.50;99.90
24902;DHT22;31328;51.402;0.016;2023-07-31T02:33:03;17.60;99.90
24902;DHT22;31328;51.402;0.016;2023-07-31T02:35:29;17.60;99.90
24902;DHT22;31328;51.402;0.016;2023-07-31T02:37:56;17.60;99.90
24902;DHT22;31328;51.402;0.016;2023-07-31T02:40:22;17.60;99.90
24902;DHT22;31328;51.402;0.016;2023-07-31T02:42:49;17.60;99.90
24902;DHT22;31328;51.402;0.016;2023-07-31T02:45:15;17.60;99.90
24902;DHT22;31328;51.402;0.016;2023-07-31T02:47:41;17.60;99.90
24902;DHT22;31328;51.402;0.016;2023-07-31T02:50:07;17.70;99.90
24902;DHT22;31328;51.402;0.016;2023-07-31T02:52:33;17.70;99.90
24902;DHT22;31328;51.402;0.016;2023-07-31T02:54:59;17.70;99.90
24902;DHT22;31328;51.402;0.016;2023-07-31T02:57:26;17.70;99.90
24902;DHT22;31328;51.402;0.016;2023-07-31T02:59:52;17.70;99.90
24902;DHT22;31328;51.402;0.016;2023-07-31T03:02:18;17.70;99.90
24902;DHT22;31328;51.402;0.016;2023-07-31T03:04:44;17.70;99.90
24902;DHT22;31328;51.402;0.016;2023-07-31T03:07:10;17.70;99.90
24902;DHT22;31328;51.402;0.016;2023-07-31T03:09:36;17.70;99.90
24902;DHT22;31328;51.402;0.016;2023-07-31T03:12:03;17.70;99.90
24902;DHT22;31328;51.402;0.016;2023-07-31T03:14:29;17.70;99.90
24902;DHT22;31328;51.402;0.016;2023-07-31T03:16:55;17.80;99.90
24902;DHT22;31328;51.402;0.016;2023-07-31T03:19:21;17.80;99.90
24902;DHT22;31328;51.402;0.016;2023-07-31T03:21:47;17.80;99.90
24902;DHT22;31328;51.402;0.016;2023-07-31T03:24:13;17.80;99.90
24902;DHT22;31328;51.402;0.016;2023-07-31T03:26:39;17.80;99.90
24902;DHT22;31328;51.402;0.016;2023-07-31T03:29:07;17.80;99.90
24902;DHT22;31328;51.402;0.016;2023-07-31T03:31:34;17.80;99.90
24902;DHT22;31328;51.402;0.016;2023-07-31T03:34:00;17.80;99.90
24902;DHT22;31328;51.402;0.016;2023-07-31T03:36:27;17.80;99.90
24902;DHT22;31328;51.402;0.016;2023-07-31T03:38:53;17.80;99.90
24902;DHT22;31328;51.402;0.016;2023-07-31T03:41:19;17.80;99.90
24902;DHT22;31328;51.402;0.016;2023-07-31T03:43:50;17.90;99.90
24902;DHT22;31328;51.402;0.016;2023-07-31T03:46:22;17.90;99.90
24902;DHT22;31328;51.402;0.016;2023-07-31T03:48:48;17.90;99.90
24902;DHT22;31328;51.402;0.016;2023-07-31T03:51:14;17.90;99.90
24902;DHT22;31328;51.402;0.016;2023-07-31T03:53:40;17.90;99.90
24902;DHT22;31328;51.402;0.016;2023-07-31T03:56:06;17.90;99.90
24902;DHT22;31328;51.402;0.016;2023-07-31T03:58:33;17.90;99.90
24902;DHT22;31328;51.402;0.016;2023-07-31T04:00:59;17.90;99.90
24902;DHT22;31328;51.402;0.016;2023-07-31T04:03:25;18.00;99.90
24902;DHT22;31328;51.402;0.016;2023-07-31T04:05:51;18.00;99.90
24902;DHT22;31328;51.402;0.016;2023-07-31T04:08:17;17.90;99.90
24902;DHT22;31328;51.402;0.016;2023-07-31T04:10:43;18.00;99.90
24902;DHT22;31328;51.402;0.016;2023-07-31T04:13:09;18.00;99.90
24902;DHT22;31328;51.402;0.016;2023-07-31T04:15:35;18.00;99.90
24902;DHT22;31328;51.402;0.016;2023-07-31T04:18:01;18.00;99.90
24902;DHT22;31328;51.402;0.016;2023-07-31T04:20:28;18.00;99.90
24902;DHT22;31328;51.402;0.016;2023-07-31T04:22:54;18.00;99.90
24902;DHT22;31328;51.402;0.016;2023-07-31T04:25:20;18.10;99.90
24902;DHT22;31328;51.402;0.016;2023-07-31T04:27:46;18.10;99.90
24902;DHT22;31328;51.402;0.016;2023-07-31T04:30:12;18.10;99.90
24902;DHT22;31328;51.402;0.016;2023-07-31T04:32:38;18.10;99.90
24902;DHT22;31328;51.402;0.016;2023-07-31T04:35:04;18.10;99.90
24902;DHT22;31328;51.402;0.016;2023-07-31T04:37:30;18.10;99.90
24902;DHT22;31328;51.402;0.016;2023-07-31T04:39:57;18.10;99.90
24902;DHT22;31328;51.402;0.016;2023-07-31T04:42:23;18.10;99.90
24902;DHT22;31328;51.402;0.016;2023-07-31T04:44:49;18.10;99.90
24902;DHT22;31328;51.402;0.016;2023-07-31T04:47:15;18.10;99.90
24902;DHT22;31328;51.402;0.016;2023-07-31T04:49:41;18.10;99.90
24902;DHT22;31328;51.402;0.016;2023-07-31T04:52:07;18.10;99.90
24902;DHT22;31328;51.402;0.016;2023-07-31T04:54:33;18.20;99.90
24902;DHT22;31328;51.402;0.016;2023-07-31T04:56:59;18.20;99.90
24902;DHT22;31328;51.402;0.016;2023-07-31T04:59:25;18.20;99.90
24902;DHT22;31328;51.402;0.016;2023-07-31T05:01:51;18.20;99.90
24902;DHT22;31328;51.402;0.016;2023-07-31T05:04:18;18.20;99.90
24902;DHT22;31328;51.402;0.016;2023-07-31T05:06:44;18.20;99.90
24902;DHT22;31328;51.402;0.016;2023-07-31T05:09:10;18.20;99.90
24902;DHT22;31328;51.402;0.016;2023-07-31T05:11:36;18.20;99.90
24902;DHT22;31328;51.402;0.016;2023-07-31T05:14:02;18.20;99.90
24902;DHT22;31328;51.402;0.016;2023-07-31T05:16:28;18.20;99.90
24902;DHT22;31328;51.402;0.016;2023-07-31T05:18:54;18.20;99.90
24902;DHT22;31328;51.402;0.016;2023-07-31T05:21:20;18.20;99.90
24902;DHT22;31328;51.402;0.016;2023-07-31T05:23:46;18.20;99.90
24902;DHT22;31328;51.402;0.016;2023-07-31T05:26:13;18.30;99.90
24902;DHT22;31328;51.402;0.016;2023-07-31T05:28:39;18.30;99.90
24902;DHT22;31328;51.402;0.016;2023-07-31T05:31:05;18.30;99.90
24902;DHT22;31328;51.402;0.016;2023-07-31T05:33:32;18.30;99.90
24902;DHT22;31328;51.402;0.016;2023-07-31T05:35:58;18.30;99.90
24902;DHT22;31328;51.402;0.016;2023-07-31T05:38:25;18.30;99.90
24902;DHT22;31328;51.402;0.016;2023-07-31T05:40:51;18.30;99.90
24902;DHT22;31328;51.402;0.016;2023-07-31T05:43:17;18.30;99.90
24902;DHT22;31328;51.402;0.016;2023-07-31T05:45:43;18.40;99.90
24902;DHT22;31328;51.402;0.016;2023-07-31T05:48:09;18.40;99.90
24902;DHT22;31328;51.402;0.016;2023-07-31T05:50:35;18.40;99.90
24902;DHT22;31328;51.402;0.016;2023-07-31T05:53:03;18.40;99.90
24902;DHT22;31328;51.402;0.016;2023-07-31T05:55:29;18.40;99.90
24902;DHT22;31328;51.402;0.016;2023-07-31T05:57:55;18.40;99.90
24902;DHT22;31328;51.402;0.016;2023-07-31T06:00:21;18.50;99.90
24902;DHT22;31328;51.402;0.016;2023-07-31T06:02:47;18.50;99.90
24902;DHT22;31328;51.402;0.016;2023-07-31T06:05:13;18.50;99.90
24902;DHT22;31328;51.402;0.016;2023-07-31T06:07:40;18.50;99.90
24902;DHT22;31328;51.402;0.016;2023-07-31T06:10:06;18.50;99.90
24902;DHT22;31328;51.402;0.016;2023-07-31T06:12:33;18.60;99.90
24902;DHT22;31328;51.402;0.016;2023-07-31T06:14:59;18.60;99.90
24902;DHT22;31328;51.402;0.016;2023-07-31T06:17:25;18.60;99.90
24902;DHT22;31328;51.402;0.016;2023-07-31T06:19:55;18.60;99.90
24902;DHT22;31328;51.402;0.016;2023-07-31T06:22:22;18.60;99.90
24902;DHT22;31328;51.402;0.016;2023-07-31T06:24:48;18.70;99.90
24902;DHT22;31328;51.402;0.016;2023-07-31T06:27:14;18.70;99.90
24902;DHT22;31328;51.402;0.016;2023-07-31T06:29:40;18.80;99.90
24902;DHT22;31328;51.402;0.016;2023-07-31T06:32:07;18.80;99.90
24902;DHT22;31328;51.402;0.016;2023-07-31T06:34:33;18.80;99.90
24902;DHT22;31328;51.402;0.016;2023-07-31T06:36:59;18.80;99.90
24902;DHT22;31328;51.402;0.016;2023-07-31T06:39:25;18.80;99.90
24902;DHT22;31328;51.402;0.016;2023-07-31T06:41:51;18.80;99.90
24902;DHT22;31328;51.402;0.016;2023-07-31T06:44:17;18.90;99.90
24902;DHT22;31328;51.402;0.016;2023-07-31T06:46:43;18.90;99.90
24902;DHT22;31328;51.402;0.016;2023-07-31T06:49:09;19.00;99.90
24902;DHT22;31328;51.402;0.016;2023-07-31T06:51:35;19.00;99.90
24902;DHT22;31328;51.402;0.016;2023-07-31T06:54:02;19.00;99.90
24902;DHT22;31328;51.402;0.016;2023-07-31T06:56:28;19.10;99.90
24902;DHT22;31328;51.402;0.016;2023-07-31T06:58:55;19.10;99.90
24902;DHT22;31328;51.402;0.016;2023-07-31T07:01:21;19.10;99.90
24902;DHT22;31328;51.402;0.016;2023-07-31T07:03:48;19.10;99.90
24902;DHT22;31328;51.402;0.016;2023-07-31T07:06:19;19.10;99.90
24902;DHT22;31328;51.402;0.016;2023-07-31T07:08:45;19.10;99.90
24902;DHT22;31328;51.402;0.016;2023-07-31T07:11:11;19.10;99.90
24902;DHT22;31328;51.402;0.016;2023-07-31T07:13:37;19.10;99.90
24902;DHT22;31328;51.402;0.016;2023-07-31T07:16:03;19.20;99.90
24902;DHT22;31328;51.402;0.016;2023-07-31T07:18:29;19.20;99.90
24902;DHT22;31328;51.402;0.016;2023-07-31T07:20:55;19.20;99.90
24902;DHT22;31328;51.402;0.016;2023-07-31T07:23:24;19.30;99.90
24902;DHT22;31328;51.402;0.016;2023-07-31T07:25:50;19.30;99.90
24902;DHT22;31328;51.402;0.016;2023-07-31T07:28:17;19.30;99.90
24902;DHT22;31328;51.402;0.016;2023-07-31T07:30:43;19.30;99.90
24902;DHT22;31328;51.402;0.016;2023-07-31T07:33:09;19.30;99.90
24902;DHT22;31328;51.402;0.016;2023-07-31T07:35:35;19.30;99.90
24902;DHT22;31328;51.402;0.016;2023-07-31T07:38:02;19.30;99.90
24902;DHT22;31328;51.402;0.016;2023-07-31T07:40:28;19.30;99.90
24902;DHT22;31328;51.402;0.016;2023-07-31T07:42:54;19.40;99.90
24902;DHT22;31328;51.402;0.016;2023-07-31T07:45:21;19.40;99.90
24902;DHT22;31328;51.402;0.016;2023-07-31T07:47:47;19.30;99.90
24902;DHT22;31328;51.402;0.016;2023-07-31T07:50:13;19.40;99.90
24902;DHT22;31328;51.402;0.016;2023-07-31T07:52:39;19.40;99.90
24902;DHT22;31328;51.402;0.016;2023-07-31T07:55:05;19.40;99.90
24902;DHT22;31328;51.402;0.016;2023-07-31T07:57:31;19.40;99.90
24902;DHT22;31328;51.402;0.016;2023-07-31T07:59:57;19.40;99.90
24902;DHT22;31328;51.402;0.016;2023-07-31T08:02:23;19.50;99.90
24902;DHT22;31328;51.402;0.016;2023-07-31T08:04:49;19.50;99.90
24902;DHT22;31328;51.402;0.016;2023-07-31T08:07:15;19.60;99.90
24902;DHT22;31328;51.402;0.016;2023-07-31T08:09:41;19.60;99.90
24902;DHT22;31328;51.402;0.016;2023-07-31T08:12:08;19.60;99.90
24902;DHT22;31328;51.402;0.016;2023-07-31T08:14:34;19.70;99.90
24902;DHT22;31328;51.402;0.016;2023-07-31T08:17:00;19.70;99.90
24902;DHT22;31328;51.402;0.016;2023-07-31T08:19:26;19.70;99.90
24902;DHT22;31328;51.402;0.016;2023-07-31T08:21:52;19.80;99.90
24902;DHT22;31328;51.402;0.016;2023-07-31T08:24:18;19.80;99.90
24902;DHT22;31328;51.402;0.016;2023-07-31T08:26:44;19.80;99.90
24902;DHT22;31328;51.402;0.016;2023-07-31T08:29:11;19.80;99.90
24902;DHT22;31328;51.402;0.016;2023-07-31T08:31:37;19.80;99.90
24902;DHT22;31328;51.402;0.016;2023-07-31T08:34:03;19.80;99.90
24902;DHT22;31328;51.402;0.016;2023-07-31T08:36:29;19.80;99.90
24902;DHT22;31328;51.402;0.016;2023-07-31T08:38:55;19.90;99.90
24902;DHT22;31328;51.402;0.016;2023-07-31T08:41:21;19.90;99.90
24902;DHT22;31328;51.402;0.016;2023-07-31T08:43:48;20.00;99.90
24902;DHT22;31328;51.402;0.016;2023-07-31T08:46:15;20.10;99.90
24902;DHT22;31328;51.402;0.016;2023-07-31T08:48:42;20.10;99.90
24902;DHT22;31328;51.402;0.016;2023-07-31T08:51:08;20.20;99.90
24902;DHT22;31328;51.402;0.016;2023-07-31T08:53:35;20.20;99.90
24902;DHT22;31328;51.402;0.016;2023-07-31T08:56:01;20.20;99.90
24902;DHT22;31328;51.402;0.016;2023-07-31T08:58:30;20.30;99.90
24902;DHT22;31328;51.402;0.016;2023-07-31T09:00:56;20.30;99.90
24902;DHT22;31328;51.402;0.016;2023-07-31T09:03:24;20.30;99.90
24902;DHT22;31328;51.402;0.016;2023-07-31T09:05:50;20.30;99.90
24902;DHT22;31328;51.402;0.016;2023-07-31T09:08:20;20.30;99.90
24902;DHT22;31328;51.402;0.016;2023-07-31T09:10:47;20.30;99.90
24902;DHT22;31328;51.402;0.016;2023-07-31T09:13:13;20.30;99.90
24902;DHT22;31328;51.402;0.016;2023-07-31T09:15:40;20.30;99.90
24902;DHT22;31328;51.402;0.016;2023-07-31T09:18:08;20.30;99.90
24902;DHT22;31328;51.402;0.016;2023-07-31T09:20:34;20.20;99.90
24902;DHT22;31328;51.402;0.016;2023-07-31T09:23:07;20.20;99.90
24902;DHT22;31328;51.402;0.016;2023-07-31T09:25:36;20.20;99.90
24902;DHT22;31328;51.402;0.016;2023-07-31T09:28:04;20.10;99.90
24902;DHT22;31328;51.402;0.016;2023-07-31T09:30:30;20.10;99.90
24902;DHT22;31328;51.402;0.016;2023-07-31T09:33:01;20.10;99.90
24902;DHT22;31328;51.402;0.016;2023-07-31T09:35:31;20.20;99.90
24902;DHT22;31328;51.402;0.016;2023-07-31T09:38:04;20.20;99.90
24902;DHT22;31328;51.402;0.016;2023-07-31T09:42:58;20.20;99.90
24902;DHT22;31328;51.402;0.016;2023-07-31T09:45:25;20.20;99.90
24902;DHT22;31328;51.402;0.016;2023-07-31T09:47:51;20.20;99.90
24902;DHT22;31328;51.402;0.016;2023-07-31T09:50:17;20.20;99.90
24902;DHT22;31328;51.402;0.016;2023-07-31T09:52:43;20.20;99.90
24902;DHT22;31328;51.402;0.016;2023-07-31T09:55:09;20.30;99.90
24902;DHT22;31328;51.402;0.016;2023-07-31T09:57:39;20.30;99.90
24902;DHT22;31328;51.402;0.016;2023-07-31T10:00:06;20.40;99.90
24902;DHT22;31328;51.402;0.016;2023-07-31T10:02:38;20.40;99.90
24902;DHT22;31328;51.402;0.016;2023-07-31T10:05:05;20.60;99.90
24902;DHT22;31328;51.402;0.016;2023-07-31T10:07:33;20.60;99.90
24902;DHT22;31328;51.402;0.016;2023-07-31T10:10:01;20.70;99.90
24902;DHT22;31328;51.402;0.016;2023-07-31T10:12:29;20.70;99.90
24902;DHT22;31328;51.402;0.016;2023-07-31T10:14:57;20.70;99.90
24902;DHT22;31328;51.402;0.016;2023-07-31T10:17:25;20.80;99.90
24902;DHT22;31328;51.402;0.016;2023-07-31T10:19:51;20.90;99.90
24902;DHT22;31328;51.402;0.016;2023-07-31T10:22:19;20.90;99.90
24902;DHT22;31328;51.402;0.016;2023-07-31T10:24:46;21.00;99.90
24902;DHT22;31328;51.402;0.016;2023-07-31T10:27:12;21.00;99.90
24902;DHT22;31328;51.402;0.016;2023-07-31T10:29:38;21.00;99.90
24902;DHT22;31328;51.402;0.016;2023-07-31T10:32:06;21.00;99.90
24902;DHT22;31328;51.402;0.016;2023-07-31T10:34:35;21.00;99.90
24902;DHT22;31328;51.402;0.016;2023-07-31T10:39:55;21.00;99.90
24902;DHT22;31328;51.402;0.016;2023-07-31T10:42:27;20.90;99.90
24902;DHT22;31328;51.402;0.016;2023-07-31T10:44:56;21.00;99.90
24902;DHT22;31328;51.402;0.016;2023-07-31T10:47:22;21.10;99.90
24902;DHT22;31328;51.402;0.016;2023-07-31T10:49:48;21.10;99.90
24902;DHT22;31328;51.402;0.016;2023-07-31T10:52:16;21.20;99.90
24902;DHT22;31328;51.402;0.016;2023-07-31T10:54:45;21.30;99.90
24902;DHT22;31328;51.402;0.016;2023-07-31T10:57:21;21.30;99.90
24902;DHT22;31328;51.402;0.016;2023-07-31T10:59:50;21.30;99.90
24902;DHT22;31328;51.402;0.016;2023-07-31T11:02:26;21.40;99.90
24902;DHT22;31328;51.402;0.016;2023-07-31T11:05:10;21.40;99.90
24902;DHT22;31328;51.402;0.016;2023-07-31T11:07:55;21.50;99.90
24902;DHT22;31328;51.402;0.016;2023-07-31T11:10:21;21.50;99.90
24902;DHT22;31328;51.402;0.016;2023-07-31T11:12:48;21.50;99.90
24902;DHT22;31328;51.402;0.016;2023-07-31T11:15:14;21.50;99.90
24902;DHT22;31328;51.402;0.016;2023-07-31T11:17:41;21.50;99.90
24902;DHT22;31328;51.402;0.016;2023-07-31T11:20:07;21.50;99.90
24902;DHT22;31328;51.402;0.016;2023-07-31T11:22:35;21.50;99.90
24902;DHT22;31328;51.402;0.016;2023-07-31T11:25:03;21.50;99.90
24902;DHT22;31328;51.402;0.016;2023-07-31T11:27:29;21.50;99.90
24902;DHT22;31328;51.402;0.016;2023-07-31T11:30:02;21.40;99.90
24902;DHT22;31328;51.402;0.016;2023-07-31T11:32:29;21.40;99.70
24902;DHT22;31328;51.402;0.016;2023-07-31T11:34:56;21.40;99.90
24902;DHT22;31328;51.402;0.016;2023-07-31T11:37:22;21.40;99.90
24902;DHT22;31328;51.402;0.016;2023-07-31T11:40:00;21.50;99.90
24902;DHT22;31328;51.402;0.016;2023-07-31T11:42:27;21.40;99.90
24902;DHT22;31328;51.402;0.016;2023-07-31T11:44:53;21.30;99.90
24902;DHT22;31328;51.402;0.016;2023-07-31T11:47:19;21.10;99.90
24902;DHT22;31328;51.402;0.016;2023-07-31T11:49:45;20.80;99.90
24902;DHT22;31328;51.402;0.016;2023-07-31T11:52:11;20.50;99.90
24902;DHT22;31328;51.402;0.016;2023-07-31T11:54:38;20.20;99.90
24902;DHT22;31328;51.402;0.016;2023-07-31T11:57:04;20.00;99.90
24902;DHT22;31328;51.402;0.016;2023-07-31T11:59:30;19.80;99.90
24902;DHT22;31328;51.402;0.016;2023-07-31T12:01:57;19.70;99.90
24902;DHT22;31328;51.402;0.016;2023-07-31T12:04:23;19.60;99.90
24902;DHT22;31328;51.402;0.016;2023-07-31T12:06:49;19.50;99.90
24902;DHT22;31328;51.402;0.016;2023-07-31T12:09:18;19.50;99.90
24902;DHT22;31328;51.402;0.016;2023-07-31T12:11:47;19.50;99.90
24902;DHT22;31328;51.402;0.016;2023-07-31T12:14:23;19.60;99.90
24902;DHT22;31328;51.402;0.016;2023-07-31T12:17:00;19.60;99.90
24902;DHT22;31328;51.402;0.016;2023-07-31T12:19:27;19.60;99.90
24902;DHT22;31328;51.402;0.016;2023-07-31T12:21:56;19.60;99.80
24902;DHT22;31328;51.402;0.016;2023-07-31T12:24:22;19.60;99.70
24902;DHT22;31328;51.402;0.016;2023-07-31T12:26:48;19.60;99.70
24902;DHT22;31328;51.402;0.016;2023-07-31T12:29:14;19.60;99.50
24902;DHT22;31328;51.402;0.016;2023-07-31T12:31:41;19.60;99.60
24902;DHT22;31328;51.402;0.016;2023-07-31T12:34:17;19.50;99.50
24902;DHT22;31328;51.402;0.016;2023-07-31T12:36:44;19.50;99.50
24902;DHT22;31328;51.402;0.016;2023-07-31T12:39:10;19.50;99.60
24902;DHT22;31328;51.402;0.016;2023-07-31T12:41:36;19.50;99.60
24902;DHT22;31328;51.402;0.016;2023-07-31T12:44:02;19.50;99.60
24902;DHT22;31328;51.402;0.016;2023-07-31T12:46:29;19.50;99.60
24902;DHT22;31328;51.402;0.016;2023-07-31T12:48:55;19.50;99.70
24902;DHT22;31328;51.402;0.016;2023-07-31T12:51:21;19.50;99.60
24902;DHT22;31328;51.402;0.016;2023-07-31T12:53:47;19.50;99.60
24902;DHT22;31328;51.402;0.016;2023-07-31T12:56:13;19.50;99.60
24902;DHT22;31328;51.402;0.016;2023-07-31T12:58:39;19.60;99.50
24902;DHT22;31328;51.402;0.016;2023-07-31T13:01:05;19.50;99.40
24902;DHT22;31328;51.402;0.016;2023-07-31T13:03:32;19.60;99.50
24902;DHT22;31328;51.402;0.016;2023-07-31T13:05:58;19.50;99.50
24902;DHT22;31328;51.402;0.016;2023-07-31T13:08:24;19.50;99.60
24902;DHT22;31328;51.402;0.016;2023-07-31T13:10:50;19.50;99.70
24902;DHT22;31328;51.402;0.016;2023-07-31T13:13:16;19.50;99.80
24902;DHT22;31328;51.402;0.016;2023-07-31T13:15:43;19.40;99.90
24902;DHT22;31328;51.402;0.016;2023-07-31T13:18:09;19.40;99.80
24902;DHT22;31328;51.402;0.016;2023-07-31T13:20:35;19.30;99.80
24902;DHT22;31328;51.402;0.016;2023-07-31T13:23:01;19.40;99.90
24902;DHT22;31328;51.402;0.016;2023-07-31T13:25:27;19.30;99.90
24902;DHT22;31328;51.402;0.016;2023-07-31T13:27:53;19.20;99.90
24902;DHT22;31328;51.402;0.016;2023-07-31T13:30:19;19.20;99.90
24902;DHT22;31328;51.402;0.016;2023-07-31T13:32:46;19.10;99.90
24902;DHT22;31328;51.402;0.016;2023-07-31T13:35:12;19.10;99.90
24902;DHT22;31328;51.402;0.016;2023-07-31T13:37:38;19.00;99.90
24902;DHT22;31328;51.402;0.016;2023-07-31T13:40:04;19.00;99.90
24902;DHT22;31328;51.402;0.016;2023-07-31T13:42:31;18.90;99.90
24902;DHT22;31328;51.402;0.016;2023-07-31T13:44:57;18.90;99.90
24902;DHT22;31328;51.402;0.016;2023-07-31T13:47:23;18.90;99.90
24902;DHT22;31328;51.402;0.016;2023-07-31T13:49:49;18.80;99.90
24902;DHT22;31328;51.402;0.016;2023-07-31T13:52:15;18.80;99.90
24902;DHT22;31328;51.402;0.016;2023-07-31T13:54:41;18.80;99.90
24902;DHT22;31328;51.402;0.016;2023-07-31T13:57:08;18.70;99.90
24902;DHT22;31328;51.402;0.016;2023-07-31T13:59:34;18.60;99.90
24902;DHT22;31328;51.402;0.016;2023-07-31T14:02:02;18.60;99.90
24902;DHT22;31328;51.402;0.016;2023-07-31T14:04:28;18.50;99.90
24902;DHT22;31328;51.402;0.016;2023-07-31T14:06:55;18.50;99.90
24902;DHT22;31328;51.402;0.016;2023-07-31T14:09:21;18.40;99.90
24902;DHT22;31328;51.402;0.016;2023-07-31T14:11:47;18.40;99.90
24902;DHT22;31328;51.402;0.016;2023-07-31T14:14:13;18.30;99.90
24902;DHT22;31328;51.402;0.016;2023-07-31T14:16:39;18.30;99.90
24902;DHT22;31328;51.402;0.016;2023-07-31T14:19:05;18.20;99.90
24902;DHT22;31328;51.402;0.016;2023-07-31T14:21:33;18.20;99.90
24902;DHT22;31328;51.402;0.016;2023-07-31T14:23:59;18.10;99.90
24902;DHT22;31328;51.402;0.016;2023-07-31T14:26:25;18.10;99.90
24902;DHT22;31328;51.402;0.016;2023-07-31T14:28:51;18.00;99.90
24902;DHT22;31328;51.402;0.016;2023-07-31T14:31:17;18.00;99.90
24902;DHT22;31328;51.402;0.016;2023-07-31T14:33:43;18.00;99.90
24902;DHT22;31328;51.402;0.016;2023-07-31T14:36:10;18.00;99.90
24902;DHT22;31328;51.402;0.016;2023-07-31T14:38:36;17.90;99.90
24902;DHT22;31328;51.402;0.016;2023-07-31T14:41:02;17.90;99.90
24902;DHT22;31328;51.402;0.016;2023-07-31T14:43:28;17.90;99.90
24902;DHT22;31328;51.402;0.016;2023-07-31T14:45:54;17.80;99.90
24902;DHT22;31328;51.402;0.016;2023-07-31T14:48:23;17.90;99.90
24902;DHT22;31328;51.402;0.016;2023-07-31T14:50:49;17.80;99.90
24902;DHT22;31328;51.402;0.016;2023-07-31T14:53:16;17.90;99.90
24902;DHT22;31328;51.402;0.016;2023-07-31T14:55:42;17.90;99.90
24902;DHT22;31328;51.402;0.016;2023-07-31T14:58:08;17.90;99.90
24902;DHT22;31328;51.402;0.016;2023-07-31T15:00:36;17.80;99.90
24902;DHT22;31328;51.402;0.016;2023-07-31T15:03:03;17.90;99.90
24902;DHT22;31328;51.402;0.016;2023-07-31T15:05:29;17.80;99.90
24902;DHT22;31328;51.402;0.016;2023-07-31T15:07:55;17.90;99.90
24902;DHT22;31328;51.402;0.016;2023-07-31T15:10:21;17.90;99.90
24902;DHT22;31328;51.402;0.016;2023-07-31T15:12:47;17.90;99.90
24902;DHT22;31328;51.402;0.016;2023-07-31T15:15:14;18.00;99.90
24902;DHT22;31328;51.402;0.016;2023-07-31T15:17:40;18.00;99.90
24902;DHT22;31328;51.402;0.016;2023-07-31T15:20:07;18.00;99.90
24902;DHT22;31328;51.402;0.016;2023-07-31T15:22:33;18.10;99.90
24902;DHT22;31328;51.402;0.016;2023-07-31T15:24:59;18.10;99.90
24902;DHT22;31328;51.402;0.016;2023-07-31T15:27:25;18.20;99.90
24902;DHT22;31328;51.402;0.016;2023-07-31T15:29:51;18.20;99.90
24902;DHT22;31328;51.402;0.016;2023-07-31T15:32:18;18.30;99.90
24902;DHT22;31328;51.402;0.016;2023-07-31T15:34:44;18.40;99.90
24902;DHT22;31328;51.402;0.016;2023-07-31T15:37:11;18.50;99.90
24902;DHT22;31328;51.402;0.016;2023-07-31T15:39:37;18.50;99.90
24902;DHT22;31328;51.402;0.016;2023-07-31T15:42:03;18.60;99.90